Flight Track Log - Related Links

Times and Time Zones

All times are in EDT time to prevent confusion due to time zone crossing. See the CCA4486 flight status page for this flight to view local times or setup timezone preferences in your user account.

Time Position Orientation Groundspeed Altitude Reporting Facility
EDT Latitude Longitude Course Direction KTS MPH feet Rate Location/Type
Sat 09:19:00 AM 32.5637 103.7177 174° South  Level Estimated
Sat 09:20:00 AM 32.4904 103.7264 174° South  Level Estimated
Sat 09:21:00 AM 32.4170 103.7350 174° South  Level Estimated
Sat 09:22:00 AM 32.3437 103.7437 174° South  Level Estimated
Sat 09:23:00 AM 32.2704 103.7523 174° South  Level Estimated
Sat 09:24:00 AM 32.1970 103.7608 174° South  Level Estimated
Sat 09:25:00 AM 32.1237 103.7694 174° South  Level Estimated
Sat 09:26:00 AM 32.0504 103.7780 174° South  Level Estimated
Sat 09:26:54 AM 32.6470 104.3030 174° South 446 513 24,600  Level FlightAware
Sat 09:27:00 AM 31.9771 103.7866 174° South  Level Estimated
Sat 09:27:29 AM 32.5710 104.3080 177° South 441 507 24,600  Level FlightAware
Sat 09:28:11 AM 32.4850 104.3130 177° South 441 507 24,600  Level FlightAware
Sat 09:28:55 AM 32.3940 104.3180 177° South 444 511 24,600  Level FlightAware
Sat 09:29:31 AM 32.3240 104.3220 177° South 442 509 24,600  Level FlightAware
Sat 09:30:19 AM 32.2240 104.3270 178° South 439 505 24,600  Level FlightAware
Sat 09:30:58 AM 32.1460 104.3310 178° South 437 503 24,600  Level FlightAware
Sat 09:31:39 AM 32.0610 104.3350 178° South 441 507 24,600  Level FlightAware
Sat 09:32:23 AM 31.9700 104.3400 177° South 442 509 24,600  Level FlightAware
Sat 09:33:03 AM 31.8880 104.3440 178° South 445 512 24,600  Level FlightAware
Sat 09:33:47 AM 31.7970 104.3490 177° South 445 512 24,600 -857 Level FlightAware
Sat 09:34:27 AM 31.7170 104.3530 178° South 430 495 23,400 -1,929 Descending FlightAware
Sat 09:35:11 AM 31.6290 104.3580 177° South 429 494 21,900 -2,000 Descending FlightAware
Sat 09:35:51 AM 31.5500 104.3610 178° South 425 489 20,600 -1,714 Descending FlightAware
Sat 09:36:35 AM 31.4640 104.3660 177° South 407 468 19,500 -1,295 Descending FlightAware
Sat 09:37:19 AM 31.3830 104.3690 178° South 398 458 18,700 -667 Descending FlightAware
Sat 09:37:47 AM 31.3330 104.3540 194° South 400 460 18,700 -882 Level FlightAware
Sat 09:38:27 AM 31.2750 104.3020 217° Southwest 390 449 17,700 -2,025 Descending FlightAware
Sat 09:39:07 AM 31.2210 104.2480 221° Southwest 385 443 16,000 -2,357 Descending FlightAware
Sat 09:39:51 AM 31.1610 104.1890 220° Southwest 377 434 14,400 -1,500 Descending FlightAware
Sat 09:40:35 AM 31.1020 104.1310 220° Southwest 379 436 13,800 -424 Descending FlightAware
Sat 09:41:16 AM 31.0490 104.0790 220° Southwest 361 415 13,800  Level FlightAware
Sat 09:41:41 AM 31.0170 104.0480 220° Southwest 329 379 13,800  Level FlightAware
Sat 09:42:31 AM 30.9620 103.9930 221° Southwest 310 357 13,800  Level FlightAware
Sat 09:43:16 AM 30.9130 103.9450 220° Southwest 309 356 13,800  Level FlightAware
Sat 09:43:58 AM 30.8660 103.8990 220° Southwest 311 358 13,800 -140 Level FlightAware
Sat 09:44:42 AM 30.8180 103.8520 220° Southwest 314 361 13,600 -659 Descending FlightAware
Sat 09:45:20 AM 30.7760 103.8110 220° Southwest 315 362 12,900 -1,000 Descending FlightAware
Sat 09:46:00 AM 30.7310 103.7670 220° Southwest 311 358 12,300 -977 Descending FlightAware
Sat 09:46:46 AM 30.6800 103.7180 220° Southwest 306 352 11,500 -1,263 Descending FlightAware
Sat 09:47:16 AM 30.6440 103.6960 208° Southwest 302 348 10,700 -1,444 Descending FlightAware
Sat 09:47:40 AM 30.6120 103.7030 169° South 293 337 10,200 -1,393 Descending FlightAware
Sat 09:48:12 AM 30.5720 103.7220 158° South 289 333 9,400 -1,474 Descending FlightAware
Sat 09:48:37 AM 30.5420 103.7370 157° South 283 326 8,800 -1,429 Descending FlightAware
Sat 09:48:54 AM 30.5210 103.7470 158° South 281 323 8,400 -1,571 Descending FlightAware
Sat 09:49:19 AM 30.4910 103.7610 158° South 281 323 7,700 -1,610 Descending FlightAware
Sat 09:49:35 AM 30.4730 103.7690 159° South 281 323 7,300 -1,333 Descending FlightAware
Sat 09:49:46 AM 30.4570 103.7730 168° South 279 321 7,100 -750 Descending FlightAware
Sat 09:50:15 AM 30.4230 103.7600 198° South 261 300 6,800 -643 Descending FlightAware
Sat 09:50:42 AM 30.3930 103.7460 202° Southwest 244 281 6,500 -655 Descending FlightAware
Sat 09:51:10 AM 30.3650 103.7330 202° Southwest 229 264 6,200 -750 Descending FlightAware
Sat 09:51:38 AM 30.3380 103.7400 167° South 209 241 5,800 -955 Descending FlightAware
Sat 09:51:54 AM 30.3320 103.7550 115° Southeast 207 238 5,500 -1,050 Descending FlightAware
Sat 09:52:18 AM 30.3320 103.7820 90° East 205 236 5,100 -1,050 Descending FlightAware
Sat 09:52:34 AM 30.3320 103.7970 90° East 204 235 4,800 -1,091 Descending FlightAware
Sat 09:53:02 AM 30.3390 103.8270 75° East 200 230 4,300 -621 Descending FlightAware
Sat 09:53:32 AM 30.3570 103.8520 50° Northeast 203 234 4,200 -130 Descending FlightAware
Sat 09:53:48 AM 30.3680 103.8640 43° Northeast 204 235 4,200  Level FlightAware
Sat 09:54:12 AM 30.3880 103.8750 25° Northeast 190 219 4,200 -111 Level FlightAware
Sat 09:54:42 AM 30.4120 103.8870 23° Northeast 178 205 4,100 -517 Descending FlightAware
Sat 09:55:10 AM 30.4320 103.8960 21° North 156 180 3,700 -833 Descending FlightAware
Sat 09:55:18 AM 30.4370 103.8990 27° Northeast 148 170 3,600 -667 Descending FlightAware
Sat 09:55:46 AM 30.4540 103.9060 20° North 136 157 3,300 -655 Descending FlightAware
Sat 09:56:13 AM 30.4690 103.9130 22° Northeast 133 153 3,000 -769 Descending FlightAware
Sat 09:56:25 AM 30.4770 103.9170 23° Northeast 131 151 2,800 -732 Descending FlightAware
Sat 09:56:54 AM 30.4940 103.9250 22° Northeast 131 151 2,500 -632 Descending FlightAware
Sat 09:57:22 AM 30.5090 103.9320 22° Northeast 132 152 2,200 -652 Descending FlightAware
Sat 09:57:40 AM 30.5200 103.9370 21° North 136 157 2,000 -267 Descending FlightAware
Sat 09:58:07 AM 30.5330 103.9430 22° Northeast 136 157 2,000  Level FlightAware
Sat 09:58:52 AM 30.5390 103.9440 North 18 21 -2,667 Descending FlightAware
Sat 09:59:06 AM 30.5400 103.9440 360° North 33 38  Level FlightAware
Sat 09:59:30 AM 30.5420 103.9450 23° Northeast 19 22  Level FlightAware
Sat 10:00:02 AM 30.5450 103.9460 16° North 18 21  Level FlightAware
Sat 10:00:29 AM 30.5470 103.9470 23° Northeast 16 18  Level FlightAware
Sat 10:01:09 AM 30.5490 103.9470 360° North 27 31  Level FlightAware
Sat 10:01:23 AM 30.5490 103.9460 270° West 27 31  Level FlightAware
Sat 10:01:55 AM 30.5510 103.9450 337° Northwest 34 39  Level FlightAware
Sat 10:02:22 AM 30.5530 103.9440 337° Northwest 17 20  Level FlightAware
Sat 10:02:52 AM 30.5550 103.9430 337° Northwest 19 22  Level FlightAware
Sat 10:03:04 AM 30.5560 103.9430 360° North 19 22  Level FlightAware
Sat 10:03:29 AM 30.5580 103.9420 337° Northwest 30 35  Level FlightAware
Sat 10:04:05 AM 30.5620 103.9420 360° North 34 39  Level FlightAware
Sat 10:04:15 AM 30.5610 103.9430 139° Southeast 23 26  Level FlightAware
Sat 10:04:32 AM 30.5630 103.9440 23° Northeast 25 29  Level FlightAware
Sat 10:04:55 AM 30.5650 103.9450 23° Northeast 19 22  Level FlightAware
Sat 10:06:49 AM 30.5670 103.9510 69° East 18 21  Level FlightAware
Sat 10:07:57 AM 30.5650 103.9550 120° Southeast 12 14  Level FlightAware

Login

Don't have an account? Register now (free) for customized features, flight alerts, and more!